createdAt,value
2016-02-16T00:00:26.464Z,16.61
2016-02-16T00:01:26.514Z,16.68
2016-02-16T00:02:26.580Z,16.66
2016-02-16T00:03:26.630Z,16.72
2016-02-16T00:04:26.664Z,16.66
2016-02-16T00:05:26.744Z,16.76
2016-02-16T00:06:26.778Z,16.66
2016-02-16T00:07:26.843Z,16.75
2016-02-16T00:08:26.877Z,16.74
2016-02-16T00:09:26.927Z,16.71
2016-02-16T00:10:26.992Z,16.69
2016-02-16T00:11:27.041Z,16.72
2016-02-16T00:12:27.076Z,16.66
2016-02-16T00:13:27.140Z,16.74
2016-02-16T00:14:27.190Z,16.69
2016-02-16T00:15:27.255Z,16.72
2016-02-16T00:16:27.290Z,16.72
2016-02-16T00:17:27.354Z,16.76
2016-02-16T00:18:27.388Z,16.76
2016-02-16T00:19:27.453Z,16.79
2016-02-16T00:20:27.582Z,16.78
2016-02-16T00:21:27.553Z,16.79
2016-02-16T00:22:27.587Z,16.78
2016-02-16T00:23:27.652Z,16.79
2016-02-16T00:24:27.701Z,16.72
2016-02-16T00:25:27.767Z,16.71
2016-02-16T00:26:27.801Z,16.74
2016-02-16T00:27:27.850Z,16.76
2016-02-16T00:28:27.900Z,16.78
2016-02-16T00:29:27.965Z,16.71
2016-02-16T00:30:27.999Z,16.76
2016-02-16T00:31:28.064Z,16.81
2016-02-16T00:32:28.097Z,16.76
2016-02-16T00:33:28.164Z,16.86
2016-02-16T00:34:28.213Z,16.74
2016-02-16T00:35:28.278Z,16.81
2016-02-16T00:36:28.311Z,16.79
2016-02-16T00:37:28.377Z,16.78
2016-02-16T00:38:28.411Z,16.78
2016-02-16T00:39:28.461Z,16.83
2016-02-16T00:40:28.526Z,16.79
2016-02-16T00:41:28.575Z,16.79
2016-02-16T00:42:28.625Z,16.84
2016-02-16T00:43:28.675Z,16.75
2016-02-16T00:44:28.740Z,16.74
2016-02-16T00:45:28.024Z,16.86
2016-02-16T00:46:28.838Z,16.81
2016-02-16T00:47:28.888Z,16.78
2016-02-16T00:48:28.938Z,16.81
2016-02-16T00:49:28.971Z,16.87
2016-02-16T00:50:29.053Z,16.83
2016-02-16T00:51:29.087Z,16.84
2016-02-16T00:52:29.151Z,16.83
2016-02-16T00:53:29.186Z,16.84
2016-02-16T00:54:29.251Z,16.81
2016-02-16T00:55:29.300Z,16.84
2016-02-16T00:56:29.351Z,16.86
2016-02-16T00:57:29.400Z,16.83
2016-02-16T00:58:29.449Z,16.78
2016-02-16T00:59:29.498Z,16.86
2016-02-16T01:00:29.548Z,16.87
2016-02-16T01:01:29.598Z,16.84
2016-02-16T01:02:29.664Z,16.83
2016-02-16T01:03:29.713Z,16.79
2016-02-16T01:04:29.434Z,16.86
2016-02-16T01:05:29.796Z,16.84
2016-02-16T01:06:29.877Z,16.83
2016-02-16T01:07:29.911Z,16.87
2016-02-16T01:08:29.977Z,16.87
2016-02-16T01:09:30.025Z,16.79
2016-02-16T01:10:30.121Z,16.84
2016-02-16T01:11:30.109Z,16.86
2016-02-16T01:12:30.190Z,16.76
2016-02-16T01:13:30.224Z,16.89
2016-02-16T01:14:30.274Z,16.87
2016-02-16T01:15:30.323Z,16.86
2016-02-16T01:16:30.373Z,16.84
2016-02-16T01:17:30.437Z,16.84
2016-02-16T01:18:30.471Z,16.87
2016-02-16T01:19:30.522Z,16.83
2016-02-16T01:20:30.587Z,16.86
2016-02-16T01:21:30.651Z,16.81
2016-02-16T01:22:30.701Z,16.83
2016-02-16T01:23:30.750Z,16.84
2016-02-16T01:24:30.801Z,16.83
2016-02-16T01:25:30.851Z,16.87
2016-02-16T01:26:30.900Z,16.86
2016-02-16T01:27:30.949Z,16.86
2016-02-16T01:28:30.998Z,16.84
2016-02-16T01:29:31.064Z,16.84
2016-02-16T01:30:31.098Z,16.86
2016-02-16T01:31:31.148Z,16.87
2016-02-16T01:32:31.212Z,16.87
2016-02-16T01:33:31.262Z,16.78
2016-02-16T01:34:31.311Z,16.84
2016-02-16T01:35:31.361Z,16.83
2016-02-16T01:36:31.394Z,16.87
2016-02-16T01:37:31.461Z,16.86
2016-02-16T01:38:31.510Z,16.89
2016-02-16T01:39:31.560Z,16.86
2016-02-16T01:40:31.608Z,16.84
2016-02-16T01:41:31.690Z,16.86
2016-02-16T01:42:31.708Z,16.87
2016-02-16T01:43:31.774Z,16.84
2016-02-16T01:44:31.808Z,16.84
2016-02-16T01:45:31.872Z,16.87
2016-02-16T01:46:31.937Z,16.9
2016-02-16T01:47:31.988Z,16.84
2016-02-16T01:48:32.021Z,16.79
2016-02-16T01:49:32.087Z,16.89
2016-02-16T01:50:32.136Z,16.86
2016-02-16T01:51:32.185Z,16.86
2016-02-16T01:52:32.235Z,16.84
2016-02-16T01:53:32.301Z,16.86
2016-02-16T01:54:32.334Z,16.89
2016-02-16T01:55:32.399Z,16.87
2016-02-16T01:56:32.434Z,16.83
2016-02-16T01:57:32.498Z,16.78
2016-02-16T01:58:32.548Z,16.86
2016-02-16T01:59:32.597Z,16.86
2016-02-16T02:00:32.647Z,16.87
2016-02-16T02:01:32.712Z,16.86
2016-02-16T02:02:32.747Z,16.86
2016-02-16T02:03:32.811Z,16.89
2016-02-16T02:04:32.862Z,16.9
2016-02-16T02:05:32.912Z,16.81
2016-02-16T02:06:32.962Z,16.83
2016-02-16T02:07:33.011Z,16.84
2016-02-16T02:08:33.076Z,16.83
2016-02-16T02:09:33.125Z,16.89
2016-02-16T02:10:33.160Z,16.86
2016-02-16T02:11:33.209Z,16.9
2016-02-16T02:12:33.275Z,16.9
2016-02-16T02:13:33.308Z,16.93
2016-02-16T02:14:33.373Z,16.9
2016-02-16T02:15:33.423Z,16.9
2016-02-16T02:16:33.472Z,16.96
2016-02-16T02:17:33.522Z,16.89
2016-02-16T02:18:33.572Z,16.89
2016-02-16T02:19:33.621Z,16.86
2016-02-16T02:20:33.686Z,16.87
2016-02-16T02:21:33.720Z,16.87
2016-02-16T02:22:33.785Z,16.9
2016-02-16T02:23:33.836Z,16.94
2016-02-16T02:24:33.900Z,16.9
2016-02-16T02:25:33.949Z,16.86
2016-02-16T02:26:33.983Z,16.91
2016-02-16T02:27:34.049Z,16.93
2016-02-16T02:28:34.083Z,16.93
2016-02-16T02:29:34.149Z,16.94
2016-02-16T02:30:34.198Z,16.91
2016-02-16T02:31:34.262Z,16.86
2016-02-16T02:32:34.296Z,16.89
2016-02-16T02:33:34.363Z,16.93
2016-02-16T02:34:34.396Z,16.91
2016-02-16T02:35:34.446Z,16.94
2016-02-16T02:36:34.526Z,16.84
2016-02-16T02:37:34.545Z,16.83
2016-02-16T02:38:34.609Z,16.84
2016-02-16T02:39:34.660Z,16.9
2016-02-16T02:40:34.740Z,16.84
2016-02-16T02:41:34.759Z,16.87
2016-02-16T02:42:34.823Z,16.93
2016-02-16T02:43:34.858Z,16.89
2016-02-16T02:44:34.750Z,16.94
2016-02-16T02:45:34.988Z,16.86
2016-02-16T02:46:35.023Z,16.84
2016-02-16T02:47:35.072Z,16.81
2016-02-16T02:48:35.105Z,16.9
2016-02-16T02:49:35.186Z,16.94
2016-02-16T02:50:35.219Z,16.94
2016-02-16T02:51:35.286Z,16.81
2016-02-16T02:52:35.320Z,16.87
2016-02-16T02:53:35.400Z,16.94
2016-02-16T02:54:35.433Z,16.86
2016-02-16T02:55:35.499Z,16.89
2016-02-16T02:56:35.533Z,16.81
2016-02-16T02:57:35.599Z,16.87
2016-02-16T02:58:35.633Z,16.87
2016-02-16T02:59:35.682Z,16.93
2016-02-16T03:00:35.747Z,16.84
2016-02-16T03:01:35.796Z,16.87
2016-02-16T03:02:35.846Z,16.89
2016-02-16T03:03:35.896Z,16.84
2016-02-16T03:04:35.983Z,16.9
2016-02-16T03:05:36.016Z,16.84
2016-02-16T03:06:36.050Z,16.84
2016-02-16T03:07:36.099Z,16.87
2016-02-16T03:08:36.166Z,16.96
2016-02-16T03:09:36.199Z,16.9
2016-02-16T03:10:36.280Z,16.91
2016-02-16T03:11:36.313Z,16.94
2016-02-16T03:12:36.363Z,16.9
2016-02-16T03:13:36.413Z,16.81
2016-02-16T03:14:36.463Z,16.81
2016-02-16T03:15:36.512Z,16.97
2016-02-16T03:16:36.577Z,16.97
2016-02-16T03:17:36.611Z,16.94
2016-02-16T03:18:36.676Z,16.9
2016-02-16T03:19:36.742Z,16.89
2016-02-16T03:20:36.776Z,16.93
2016-02-16T03:21:36.826Z,16.86
2016-02-16T03:22:36.859Z,16.97
2016-02-16T03:23:36.924Z,16.97
2016-02-16T03:24:36.973Z,16.93
2016-02-16T03:25:37.023Z,17.02
2016-02-16T03:26:37.073Z,16.96
2016-02-16T03:27:37.123Z,16.97
2016-02-16T03:28:37.172Z,16.89
2016-02-16T03:29:37.236Z,16.81
2016-02-16T03:30:37.286Z,16.84
2016-02-16T03:31:37.321Z,16.81
2016-02-16T03:32:37.386Z,16.93
2016-02-16T03:33:37.420Z,16.86
2016-02-16T03:34:37.469Z,16.89
2016-02-16T03:35:37.535Z,16.89
2016-02-16T03:36:37.568Z,16.94
2016-02-16T03:37:37.634Z,16.94
2016-02-16T03:38:37.683Z,16.97
2016-02-16T03:39:37.733Z,16.93
2016-02-16T03:40:37.782Z,16.94
2016-02-16T03:41:37.832Z,16.93
2016-02-16T03:42:37.896Z,16.91
2016-02-16T03:43:37.946Z,16.99
2016-02-16T03:44:37.981Z,16.79
2016-02-16T03:45:38.046Z,16.93
2016-02-16T03:46:38.095Z,16.97
2016-02-16T03:47:38.129Z,16.91
2016-02-16T03:48:38.194Z,16.93
2016-02-16T03:49:38.260Z,16.94
2016-02-16T03:50:38.310Z,16.97
2016-02-16T03:51:38.359Z,16.9
2016-02-16T03:52:38.408Z,16.89
2016-02-16T03:53:38.442Z,16.94
2016-02-16T03:54:38.508Z,17.01
2016-02-16T03:55:38.557Z,16.94
2016-02-16T03:56:38.607Z,16.94
2016-02-16T03:57:38.656Z,16.81
2016-02-16T03:58:38.736Z,16.9
2016-02-16T03:59:38.771Z,16.94
2016-02-16T04:00:38.820Z,16.91
2016-02-16T04:01:38.886Z,16.94
2016-02-16T04:02:38.920Z,16.93
2016-02-16T04:03:39.016Z,16.87
2016-02-16T04:04:39.019Z,16.81
2016-02-16T04:05:39.068Z,16.87
2016-02-16T04:06:39.118Z,16.9
2016-02-16T04:07:39.183Z,16.93
2016-02-16T04:08:39.232Z,16.89
2016-02-16T04:09:39.282Z,16.9
2016-02-16T04:10:39.347Z,16.93
2016-02-16T04:11:39.382Z,16.97
2016-02-16T04:12:39.432Z,16.93
2016-02-16T04:13:39.496Z,16.91
2016-02-16T04:14:39.545Z,16.87
2016-02-16T04:15:39.596Z,16.9
2016-02-16T04:16:39.645Z,16.94
2016-02-16T04:17:39.679Z,16.87
2016-02-16T04:18:39.760Z,16.93
2016-02-16T04:19:39.793Z,16.93
2016-02-16T04:20:39.843Z,16.96
2016-02-16T04:21:39.909Z,16.93
2016-02-16T04:22:39.959Z,16.97
2016-02-16T04:23:39.992Z,16.9
2016-02-16T04:24:40.056Z,16.99
2016-02-16T04:25:40.123Z,16.93
2016-02-16T04:26:40.156Z,16.93
2016-02-16T04:27:40.222Z,16.94
2016-02-16T04:28:40.271Z,17.01
2016-02-16T04:29:40.320Z,17.02
2016-02-16T04:30:40.367Z,16.96
2016-02-16T04:31:40.405Z,16.97
2016-02-16T04:32:40.457Z,16.97
2016-02-16T04:33:40.492Z,16.99
2016-02-16T04:34:40.529Z,16.97
2016-02-16T04:35:40.567Z,16.93
2016-02-16T04:36:40.612Z,16.96
2016-02-16T04:37:40.641Z,16.99
2016-02-16T04:38:40.701Z,16.94
2016-02-16T04:39:40.761Z,16.99
2016-02-16T04:40:40.792Z,16.91
2016-02-16T04:41:40.105Z,16.97
2016-02-16T04:42:40.887Z,16.97
2016-02-16T04:43:40.951Z,16.86
2016-02-16T04:44:40.998Z,16.97
2016-02-16T04:45:41.032Z,16.93
2016-02-16T04:46:41.080Z,16.97
2016-02-16T04:47:41.144Z,16.96
2016-02-16T04:48:41.193Z,16.94
2016-02-16T04:49:41.242Z,17.01
2016-02-16T04:50:41.322Z,17.02
2016-02-16T04:51:41.356Z,17.01
2016-02-16T04:52:41.406Z,16.87
2016-02-16T04:53:41.471Z,16.99
2016-02-16T04:54:41.535Z,16.89
2016-02-16T04:55:41.570Z,16.99
2016-02-16T04:56:41.604Z,16.99
2016-02-16T04:57:41.668Z,17.01
2016-02-16T04:58:41.718Z,17.02
2016-02-16T04:59:41.768Z,16.97
2016-02-16T05:00:41.818Z,16.87
2016-02-16T05:01:41.882Z,16.97
2016-02-16T05:02:41.932Z,16.9
2016-02-16T05:03:41.982Z,16.96
2016-02-16T05:04:42.032Z,16.9
2016-02-16T05:05:42.082Z,16.96
2016-02-16T05:06:42.131Z,17.02
2016-02-16T05:07:42.180Z,16.9
2016-02-16T05:08:42.231Z,16.99
2016-02-16T05:09:42.295Z,16.9
2016-02-16T05:10:42.345Z,16.9
2016-02-16T05:11:42.222Z,16.9
2016-02-16T05:12:42.444Z,16.93
2016-02-16T05:13:42.494Z,16.93
2016-02-16T05:14:42.543Z,16.97
2016-02-16T05:15:42.592Z,16.9
2016-02-16T05:16:42.642Z,16.94
2016-02-16T05:17:42.692Z,16.94
2016-02-16T05:18:42.741Z,16.97
2016-02-16T05:19:42.791Z,16.84
2016-02-16T05:20:42.855Z,16.96
2016-02-16T05:21:42.905Z,16.96
2016-02-16T05:22:42.971Z,16.97
2016-02-16T05:23:43.005Z,16.87
2016-02-16T05:24:43.086Z,16.94
2016-02-16T05:25:43.119Z,16.96
2016-02-16T05:26:43.185Z,16.94
2016-02-16T05:27:43.219Z,16.93
2016-02-16T05:28:43.268Z,16.94
2016-02-16T05:29:42.568Z,16.96
2016-02-16T05:30:43.368Z,16.93
2016-02-16T05:31:43.418Z,16.96
2016-02-16T05:32:43.482Z,16.94
2016-02-16T05:33:43.515Z,16.96
2016-02-16T05:34:43.581Z,16.93
2016-02-16T05:35:43.615Z,16.93
2016-02-16T05:36:43.681Z,16.83
2016-02-16T05:37:43.715Z,16.97
2016-02-16T05:38:43.779Z,16.86
2016-02-16T05:39:43.828Z,17.02
2016-02-16T05:40:43.879Z,16.91
2016-02-16T05:41:43.944Z,16.96
2016-02-16T05:42:43.977Z,16.91
2016-02-16T05:43:44.042Z,16.84
2016-02-16T05:44:43.952Z,16.87
2016-02-16T05:45:44.158Z,16.94
2016-02-16T05:46:44.208Z,16.89
2016-02-16T05:47:44.242Z,16.94
2016-02-16T05:48:44.306Z,16.89
2016-02-16T05:49:44.355Z,16.9
2016-02-16T05:50:44.405Z,16.94
2016-02-16T05:51:44.455Z,16.93
2016-02-16T05:52:44.505Z,16.94
2016-02-16T05:53:44.554Z,16.96
2016-02-16T05:54:44.604Z,16.89
2016-02-16T05:55:44.653Z,16.94
2016-02-16T05:56:44.702Z,16.87
2016-02-16T05:57:44.769Z,16.91
2016-02-16T05:58:44.818Z,16.9
2016-02-16T05:59:44.867Z,16.94
2016-02-16T06:00:44.917Z,16.94
2016-02-16T06:01:44.966Z,16.94
2016-02-16T06:02:45.047Z,16.89
2016-02-16T06:03:45.065Z,16.87
2016-02-16T06:04:45.146Z,16.94
2016-02-16T06:05:45.181Z,16.87
2016-02-16T06:06:45.246Z,16.86
2016-02-16T06:07:45.280Z,16.94
2016-02-16T06:08:45.346Z,16.93
2016-02-16T06:09:45.379Z,16.84
2016-02-16T06:10:45.444Z,16.89
2016-02-16T06:11:45.479Z,16.87
2016-02-16T06:12:45.543Z,16.94
2016-02-16T06:13:45.593Z,16.81
2016-02-16T06:14:45.643Z,16.84
2016-02-16T06:15:45.677Z,16.86
2016-02-16T06:16:45.742Z,16.89
2016-02-16T06:17:45.807Z,16.87
2016-02-16T06:18:45.841Z,16.94
2016-02-16T06:19:45.906Z,16.9
2016-02-16T06:20:45.956Z,16.86
2016-02-16T06:21:46.005Z,16.9
2016-02-16T06:22:46.055Z,16.91
2016-02-16T06:23:46.104Z,16.84
2016-02-16T06:24:46.154Z,16.9
2016-02-16T06:25:46.219Z,16.86
2016-02-16T06:26:46.269Z,16.83
2016-02-16T06:27:46.350Z,16.89
2016-02-16T06:28:46.367Z,16.87
2016-02-16T06:29:46.402Z,16.87
2016-02-16T06:30:46.467Z,16.86
2016-02-16T06:31:46.516Z,16.83
2016-02-16T06:32:46.582Z,16.9
2016-02-16T06:33:46.616Z,16.87
2016-02-16T06:34:46.681Z,16.87
2016-02-16T06:35:46.731Z,16.87
2016-02-16T06:36:46.797Z,16.9
2016-02-16T06:37:46.813Z,16.83
2016-02-16T06:38:46.880Z,16.9
2016-02-16T06:39:46.929Z,16.86
2016-02-16T06:40:46.978Z,16.84
2016-02-16T06:41:47.027Z,16.78
2016-02-16T06:42:47.093Z,16.84
2016-02-16T06:43:47.127Z,16.84
2016-02-16T06:44:47.192Z,16.81
2016-02-16T06:45:47.241Z,16.83
2016-02-16T06:46:47.307Z,16.78
2016-02-16T06:47:47.325Z,16.86
2016-02-16T06:48:47.391Z,16.87
2016-02-16T06:49:47.440Z,16.9
2016-02-16T06:50:47.505Z,16.84
2016-02-16T06:51:47.539Z,16.84
2016-02-16T06:52:47.620Z,16.83
2016-02-16T06:53:47.654Z,16.84
2016-02-16T06:54:47.720Z,16.91
2016-02-16T06:55:47.754Z,16.87
2016-02-16T06:56:47.803Z,16.91
2016-02-16T06:57:47.853Z,16.86
2016-02-16T06:58:47.917Z,16.83
2016-02-16T06:59:47.967Z,16.87
2016-02-16T07:00:48.032Z,16.81
2016-02-16T07:01:48.050Z,16.86
2016-02-16T07:02:48.131Z,16.83
2016-02-16T07:03:48.181Z,16.83
2016-02-16T07:04:48.230Z,16.87
2016-02-16T07:05:48.264Z,16.84
2016-02-16T07:06:48.330Z,16.9
2016-02-16T07:07:48.379Z,16.9
2016-02-16T07:08:48.444Z,16.96
2016-02-16T07:09:48.478Z,16.86
2016-02-16T07:10:48.559Z,16.87
2016-02-16T07:11:48.577Z,16.9
2016-02-16T07:12:48.627Z,16.89
2016-02-16T07:13:48.677Z,16.87
2016-02-16T07:14:48.741Z,16.9
2016-02-16T07:15:48.791Z,16.83
2016-02-16T07:16:48.857Z,16.9
2016-02-16T07:17:48.890Z,16.84
2016-02-16T07:18:48.955Z,16.9
2016-02-16T07:19:49.005Z,16.89
2016-02-16T07:20:49.054Z,16.91
2016-02-16T07:21:49.088Z,16.83
2016-02-16T07:22:49.153Z,16.89
2016-02-16T07:23:49.204Z,16.87
2016-02-16T07:24:49.253Z,16.9
2016-02-16T07:25:49.303Z,16.87
2016-02-16T07:26:49.352Z,16.94
2016-02-16T07:27:49.402Z,16.87
2016-02-16T07:28:49.482Z,16.86
2016-02-16T07:29:49.517Z,16.89
2016-02-16T07:30:49.582Z,16.86
2016-02-16T07:31:49.615Z,16.87
2016-02-16T07:32:49.681Z,16.87
2016-02-16T07:33:49.714Z,16.93
2016-02-16T07:34:49.780Z,16.79
2016-02-16T07:35:49.830Z,16.89
2016-02-16T07:36:49.878Z,16.89
2016-02-16T07:37:49.913Z,16.93
2016-02-16T07:38:49.978Z,16.94
2016-02-16T07:39:50.028Z,16.87
2016-02-16T07:40:50.077Z,16.94
2016-02-16T07:41:50.127Z,16.87
2016-02-16T07:42:50.176Z,16.6
2016-02-16T07:43:50.227Z,16.17
2016-02-16T07:44:50.291Z,15.62
2016-02-16T07:45:50.325Z,15.25
2016-02-16T07:46:50.390Z,14.72
2016-02-16T07:47:50.440Z,14.33
2016-02-16T07:48:50.474Z,13.99
2016-02-16T07:49:50.539Z,13.77
2016-02-16T07:50:50.588Z,13.56
2016-02-16T07:51:50.638Z,13.35
2016-02-16T07:52:50.704Z,13.05
2016-02-16T07:53:50.737Z,12.76
2016-02-16T07:54:50.802Z,12.58
2016-02-16T07:55:50.852Z,12.37
2016-02-16T07:56:50.901Z,12.28
2016-02-16T07:57:50.951Z,12.13
2016-02-16T07:58:51.001Z,11.88
2016-02-16T07:59:51.050Z,11.77
2016-02-16T08:00:51.131Z,11.75
2016-02-16T08:01:51.150Z,11.8
2016-02-16T08:02:51.198Z,11.81
2016-02-16T08:03:51.249Z,11.7
2016-02-16T08:04:51.298Z,11.75
2016-02-16T08:05:51.348Z,11.86
2016-02-16T08:06:51.444Z,12.02
2016-02-16T08:07:51.447Z,12.09
2016-02-16T08:08:51.496Z,12.07
2016-02-16T08:09:51.562Z,12.09
2016-02-16T08:10:51.595Z,12.03
2016-02-16T08:11:51.677Z,12.18
2016-02-16T08:12:51.695Z,12.07
2016-02-16T08:13:51.745Z,12.07
2016-02-16T08:14:51.794Z,11.99
2016-02-16T08:15:51.858Z,11.88
2016-02-16T08:16:51.877Z,11.81
2016-02-16T08:17:51.974Z,11.84
2016-02-16T08:18:51.992Z,11.84
2016-02-16T08:19:52.073Z,11.8
2016-02-16T08:20:52.091Z,11.83
2016-02-16T08:21:52.156Z,11.83
2016-02-16T08:22:52.190Z,11.81
2016-02-16T08:23:52.255Z,11.78
2016-02-16T08:24:52.290Z,11.69
2016-02-16T08:25:52.354Z,11.69
2016-02-16T08:26:52.373Z,11.6
2016-02-16T08:27:52.438Z,11.5
2016-02-16T08:28:52.504Z,11.5
2016-02-16T08:29:52.521Z,11.52
2016-02-16T08:30:52.587Z,11.5
2016-02-16T08:31:52.620Z,11.43
2016-02-16T08:32:52.686Z,11.19
2016-02-16T08:33:52.736Z,11.19
2016-02-16T08:34:52.769Z,11.15
2016-02-16T08:35:52.819Z,11.14
2016-02-16T08:36:52.900Z,11.12
2016-02-16T08:37:52.934Z,11.02
2016-02-16T08:38:52.999Z,11.05
2016-02-16T08:39:53.017Z,10.92
2016-02-16T08:40:53.083Z,10.89
2016-02-16T08:41:53.100Z,10.79
2016-02-16T08:42:53.166Z,10.78
2016-02-16T08:43:53.216Z,10.75
2016-02-16T08:44:53.280Z,10.82
2016-02-16T08:45:53.315Z,10.93
2016-02-16T08:46:53.349Z,10.84
2016-02-16T08:47:53.430Z,10.87
2016-02-16T08:48:53.448Z,11.02
2016-02-16T08:49:53.513Z,10.94
2016-02-16T08:50:53.562Z,10.93
2016-02-16T08:51:53.612Z,10.97
2016-02-16T08:52:53.646Z,10.89
2016-02-16T08:53:53.711Z,10.86
2016-02-16T08:54:53.745Z,10.92
2016-02-16T08:55:53.795Z,10.93
2016-02-16T08:56:53.844Z,10.79
2016-02-16T08:57:53.878Z,10.93
2016-02-16T08:58:53.944Z,10.96
2016-02-16T08:59:53.977Z,10.9
2016-02-16T09:00:54.027Z,10.93
2016-02-16T09:01:54.107Z,11
2016-02-16T09:02:54.126Z,10.97
2016-02-16T09:03:54.175Z,10.82
2016-02-16T09:04:54.225Z,10.84
2016-02-16T09:05:54.275Z,10.72
2016-02-16T09:06:54.325Z,10.71
2016-02-16T09:07:54.373Z,10.93
2016-02-16T09:08:54.408Z,11.19
2016-02-16T09:09:54.473Z,11.52
2016-02-16T09:10:54.492Z,11.77
2016-02-16T09:11:54.556Z,12.1
2016-02-16T09:12:54.606Z,12.4
2016-02-16T09:13:54.656Z,12.67
2016-02-16T09:14:54.705Z,12.8
2016-02-16T09:15:54.739Z,13.03
2016-02-16T09:16:54.835Z,13.27
2016-02-16T09:17:54.838Z,13.42
2016-02-16T09:18:54.888Z,13.56
2016-02-16T09:19:54.937Z,13.7
2016-02-16T09:20:54.988Z,13.87
2016-02-16T09:21:55.036Z,13.96
2016-02-16T09:22:55.086Z,14.22
2016-02-16T09:23:55.136Z,14.37
2016-02-16T09:24:55.310Z,14.48
2016-02-16T09:25:55.235Z,14.69
2016-02-16T09:26:55.285Z,14.85
2016-02-16T09:27:55.318Z,14.96
2016-02-16T09:28:55.368Z,15.14
2016-02-16T09:29:55.699Z,15.24
2016-02-16T09:30:55.467Z,15.42
2016-02-16T09:31:55.517Z,15.37
2016-02-16T09:32:55.598Z,15.58
2016-02-16T09:33:55.616Z,15.59
2016-02-16T09:34:55.665Z,15.72
2016-02-16T09:35:55.715Z,15.77
2016-02-16T09:36:55.796Z,15.95
2016-02-16T09:37:55.830Z,16.01
2016-02-16T09:38:55.864Z,16.15
2016-02-16T09:39:55.929Z,16.28
2016-02-16T09:40:55.962Z,16.29
2016-02-16T09:41:56.012Z,16.39
2016-02-16T09:42:55.312Z,16.42
2016-02-16T09:43:56.112Z,16.56
2016-02-16T09:44:56.161Z,16.56
2016-02-16T09:45:56.211Z,16.65
2016-02-16T09:46:56.275Z,16.72
2016-02-16T09:47:56.341Z,16.69
2016-02-16T09:48:56.374Z,16.76
2016-02-16T09:49:56.441Z,16.86
2016-02-16T09:50:56.475Z,16.87
2016-02-16T09:51:56.539Z,17.05
2016-02-16T09:52:56.558Z,16.99
2016-02-16T09:53:56.622Z,17.14
2016-02-16T09:54:56.657Z,17.14
2016-02-16T09:55:56.721Z,17.09
2016-02-16T09:56:56.771Z,17.23
2016-02-16T09:57:56.821Z,17.24
2016-02-16T09:58:56.871Z,17.29
2016-02-16T09:59:56.921Z,17.39
2016-02-16T10:00:56.954Z,17.41
2016-02-16T10:01:57.019Z,17.41
2016-02-16T10:02:57.053Z,17.45
2016-02-16T10:03:57.118Z,17.41
2016-02-16T10:04:57.184Z,17.46
2016-02-16T10:05:57.234Z,17.44
2016-02-16T10:06:57.282Z,17.52
2016-02-16T10:07:57.301Z,17.52
2016-02-16T10:08:57.381Z,17.52
2016-02-16T10:09:57.415Z,17.59
2016-02-16T10:10:57.465Z,17.67
2016-02-16T10:11:57.499Z,17.67
2016-02-16T10:12:57.565Z,17.57
2016-02-16T10:13:57.615Z,17.74
2016-02-16T10:14:57.664Z,17.76
2016-02-16T10:15:57.714Z,17.8
2016-02-16T10:16:57.763Z,17.67
2016-02-16T10:17:57.875Z,17.7
2016-02-16T10:18:57.847Z,17.68
2016-02-16T10:19:57.912Z,17.59
2016-02-16T10:20:57.961Z,17.48
2016-02-16T10:21:58.027Z,17.49
2016-02-16T10:22:58.044Z,17.45
2016-02-16T10:23:58.110Z,17.41
2016-02-16T10:24:58.159Z,17.45
2016-02-16T10:25:58.208Z,17.39
2016-02-16T10:26:58.258Z,17.34
2016-02-16T10:27:58.308Z,17.41
2016-02-16T10:28:58.374Z,17.46
2016-02-16T10:29:58.407Z,17.46
2016-02-16T10:30:58.457Z,17.48
2016-02-16T10:31:58.521Z,17.39
2016-02-16T10:32:58.571Z,17.31
2016-02-16T10:33:58.604Z,17.42
2016-02-16T10:34:58.655Z,17.39
2016-02-16T10:35:58.721Z,17.41
2016-02-16T10:36:58.754Z,17.44
2016-02-16T10:37:58.834Z,17.44
2016-02-16T10:38:58.868Z,17.45
2016-02-16T10:39:58.934Z,17.45
2016-02-16T10:40:58.967Z,17.39
2016-02-16T10:41:59.033Z,17.51
2016-02-16T10:42:59.067Z,17.45
2016-02-16T10:43:59.101Z,17.44
2016-02-16T10:44:59.151Z,17.42
2016-02-16T10:45:59.216Z,17.42
2016-02-16T10:46:59.280Z,17.46
2016-02-16T10:47:59.315Z,17.46
2016-02-16T10:48:59.381Z,17.42
2016-02-16T10:49:59.414Z,17.48
2016-02-16T10:50:59.480Z,17.48
2016-02-16T10:51:59.513Z,17.6
2016-02-16T10:52:59.578Z,17.65
2016-02-16T10:53:59.612Z,17.71
2016-02-16T10:54:59.661Z,17.8
2016-02-16T10:55:59.728Z,17.82
2016-02-16T10:56:59.761Z,17.85
2016-02-16T10:57:59.811Z,17.74
2016-02-16T10:58:59.891Z,17.79
2016-02-16T10:59:59.910Z,17.78
2016-02-16T11:00:59.959Z,17.86
2016-02-16T11:02:00.025Z,17.85
2016-02-16T11:03:00.074Z,17.86
2016-02-16T11:04:00.108Z,17.87
2016-02-16T11:05:00.173Z,17.94
2016-02-16T11:06:00.207Z,17.95
2016-02-16T11:07:00.272Z,17.98
2016-02-16T11:08:00.338Z,17.97
2016-02-16T11:09:00.356Z,18.01
2016-02-16T11:10:00.421Z,18.04
2016-02-16T11:11:00.471Z,18.04
2016-02-16T11:12:00.504Z,18.05
2016-02-16T11:13:00.585Z,18.05
2016-02-16T11:14:00.619Z,18.07
2016-02-16T11:15:00.653Z,18.1
2016-02-16T11:16:00.717Z,18.05
2016-02-16T11:17:00.768Z,18.1
2016-02-16T11:18:01.193Z,18.1
2016-02-16T11:19:00.867Z,18.1
2016-02-16T11:20:00.917Z,18.11
2016-02-16T11:21:00.981Z,18.13
2016-02-16T11:22:01.031Z,18.13
2016-02-16T11:23:01.081Z,18.05
2016-02-16T11:24:01.147Z,18.1
2016-02-16T11:25:01.180Z,18.08
2016-02-16T11:26:01.214Z,18.15
2016-02-16T11:27:01.280Z,18.18
2016-02-16T11:28:01.333Z,18.11
2016-02-16T11:29:01.368Z,18.08
2016-02-16T11:30:01.417Z,18.19
2016-02-16T11:31:01.498Z,18.13
2016-02-16T11:32:01.532Z,18.19
2016-02-16T11:33:01.612Z,18.18
2016-02-16T11:34:01.631Z,18.15
2016-02-16T11:35:01.681Z,18.15
2016-02-16T11:36:01.745Z,18.13
2016-02-16T11:37:01.795Z,18.16
2016-02-16T11:38:01.845Z,18.07
2016-02-16T11:39:01.910Z,18.07
2016-02-16T11:40:01.929Z,18.03
2016-02-16T11:41:01.978Z,18.07
2016-02-16T11:42:02.043Z,18.05
2016-02-16T11:43:02.108Z,18.04
2016-02-16T11:44:02.173Z,18.05
2016-02-16T11:45:02.192Z,18.01
2016-02-16T11:46:02.242Z,17.97
2016-02-16T11:47:01.556Z,17.98
2016-02-16T11:48:02.341Z,17.97
2016-02-16T11:49:02.405Z,17.98
2016-02-16T11:50:02.471Z,17.98
2016-02-16T11:51:02.489Z,17.97
2016-02-16T11:52:02.586Z,17.95
2016-02-16T11:53:02.604Z,17.94
2016-02-16T11:54:02.653Z,17.98
2016-02-16T11:55:02.688Z,17.92
2016-02-16T11:56:02.783Z,17.92
2016-02-16T11:57:02.818Z,17.97
2016-02-16T11:58:02.868Z,17.92
2016-02-16T11:59:02.902Z,17.9
2016-02-16T12:00:02.935Z,17.89
2016-02-16T12:01:03.016Z,17.83
2016-02-16T12:02:03.049Z,17.85
2016-02-16T12:03:03.100Z,17.89
2016-02-16T12:04:03.165Z,17.83
2016-02-16T12:05:03.256Z,17.85
2016-02-16T12:06:03.268Z,17.86
2016-02-16T12:07:03.304Z,17.85
2016-02-16T12:08:03.368Z,17.85
2016-02-16T12:09:03.418Z,17.78
2016-02-16T12:10:03.484Z,17.78
2016-02-16T12:11:03.502Z,17.8
2016-02-16T12:12:03.567Z,17.83
2016-02-16T12:13:03.632Z,17.79
2016-02-16T12:14:03.651Z,17.78
2016-02-16T12:15:03.716Z,17.79
2016-02-16T12:16:03.781Z,17.78
2016-02-16T12:17:03.815Z,17.78
2016-02-16T12:18:03.849Z,17.8
2016-02-16T12:19:03.945Z,17.82
2016-02-16T12:20:04.011Z,17.79
2016-02-16T12:21:04.013Z,17.83
2016-02-16T12:22:04.078Z,17.85
2016-02-16T12:23:04.113Z,17.78
2016-02-16T12:24:04.193Z,17.72
2016-02-16T12:25:04.212Z,17.76
2016-02-16T12:26:04.277Z,17.82
2016-02-16T12:27:04.325Z,17.79
2016-02-16T12:28:04.376Z,17.79
2016-02-16T12:29:04.441Z,17.78
2016-02-16T12:30:04.475Z,17.65
2016-02-16T12:31:04.525Z,17.76
2016-02-16T12:32:04.574Z,17.68
2016-02-16T12:33:04.624Z,17.64
2016-02-16T12:34:04.689Z,17.65
2016-02-16T12:35:04.738Z,17.65
2016-02-16T12:36:04.789Z,17.56
2016-02-16T12:37:04.853Z,17.57
2016-02-16T12:38:04.887Z,17.67
2016-02-16T12:39:04.937Z,17.57
2016-02-16T12:40:04.985Z,17.6
2016-02-16T12:41:05.020Z,17.6
2016-02-16T12:42:05.086Z,17.63
2016-02-16T12:43:05.135Z,17.6
2016-02-16T12:44:05.200Z,17.64
2016-02-16T12:45:05.219Z,17.63
2016-02-16T12:46:05.284Z,17.64
2016-02-16T12:47:05.333Z,17.45
2016-02-16T12:48:05.382Z,17.42
2016-02-16T12:49:05.432Z,17.22
2016-02-16T12:50:05.466Z,16.87
2016-02-16T12:51:05.548Z,16.61
2016-02-16T12:52:05.581Z,16.29
2016-02-16T12:53:05.631Z,16.13
2016-02-16T12:54:05.680Z,15.95
2016-02-16T12:55:05.776Z,16.02
2016-02-16T12:56:05.764Z,16.15